Ar Rutbah, Iraq
Current Conditions -  °F | °C
As of 5:55 PM on Tuesday 21 Oct 2014 (Local Time) from KQAJ Reporting Station
Clear Clear  
Wind Chill: 26°   Ceiling: Unl
Heat Index: 26°   Visibility: 6mi
Dew Point:   Wind: 6mph
Humidity: 24%   Direction: 330°NNW
Pressure: 30.03"   Gusts: NA
Location:  33.04°N, 40.3°E
Report Text: KQAJ 211455Z 33005KT 9999 CLR 26/04 A3003 RMK AO2A SLP163 T02600040 53014
Loading
Personal Weather Stations






























Interactive Weather Map
Tropical Storm Tracking
New forecast layout! Learn more

10-Day Weather Forecast

Advertisements
Track Severe Weather on mobile